Time;durP1;ratioP1;P1;durP2;ratioP2;P2;SDS_P1;SDS_P2;PMS_P1;PMS_P2;Temp;Humidity;BMP_temperature;BMP_pressure;BME280_temperature;BME280_humidity;BME280_pressure;Samples;Min_cycle;Max_cycle;Signal;HPM_P1;HPM_P2
2022/11/06 00:00:34;;;;;;;;;;;;;;;18.70;67.44;98624.91;2109163;28;20631;-48
2022/11/06 00:01:36;;;;;;;6.30;2.05;;;;;;;18.73;67.38;98629.88;2107562;28;19923;-47
2022/11/06 00:02:37;;;;;;;4.38;1.05;;;;;;;18.77;67.33;98630.31;2107927;28;20043;-49
2022/11/06 00:03:38;;;;;;;;;;;;;;;18.70;67.89;98634.84;2108212;28;20047;-47
2022/11/06 00:04:39;;;;;;;6.65;2.65;;;;;;;18.73;67.32;98629.06;2108014;28;19920;-48
2022/11/06 00:07:00;;;;;;;3.40;1.23;;;;;;;18.72;67.64;98638.13;2108246;28;20002;-49
2022/11/06 00:08:01;;;;;;;10.00;1.77;;;;;;;18.77;67.59;98640.25;2108129;28;20055;-48
2022/11/06 00:09:04;;;;;;;;;;;;;;;18.68;67.61;98629.66;2108742;28;20047;-50
2022/11/06 00:10:05;;;;;;;7.20;2.28;;;;;;;18.71;67.79;98637.31;2109463;28;19923;-47
2022/11/06 00:11:11;;;;;;;8.05;1.75;;;;;;;18.76;67.37;98628.69;2107455;28;20051;-51
2022/11/06 00:12:12;;;;;;;4.82;1.45;;;;;;;18.80;67.38;98629.09;2107706;28;20050;-47
2022/11/06 00:13:13;;;;;;;;;;;;;;;18.70;67.38;98638.34;2108229;28;20555;-47
2022/11/06 00:14:17;;;;;;;2.35;1.13;;;;;;;18.74;67.32;98636.94;2107697;28;20529;-48
2022/11/06 00:15:18;;;;;;;7.78;1.67;;;;;;;18.76;67.38;98636.72;2106772;27;20054;-47
2022/11/06 00:16:19;;;;;;;5.53;1.23;;;;;;;18.78;67.74;98640.06;2107783;28;20459;-50
2022/11/06 00:17:21;;;;;;;;;;;;;;;18.70;67.58;98638.34;2108384;28;20043;-47
2022/11/06 00:18:24;;;;;;;;;;;;;;;18.63;67.94;98634.00;2107450;28;19920;-47
2022/11/06 00:19:26;;;;;;;5.35;1.15;;;;;;;18.69;68.00;98635.84;2101866;28;19926;-47
2022/11/06 00:20:27;;;;;;;6.32;1.70;;;;;;;18.73;67.89;98642.50;2107668;28;20525;-47
2022/11/06 00:21:30;;;;;;;;;;;;;;;18.66;67.83;98638.94;2105267;28;20061;-47
2022/11/06 00:22:31;;;;;;;9.88;1.67;;;;;;;18.70;68.06;98640.22;2100053;28;19924;-47
2022/11/06 00:23:34;;;;;;;3.25;1.10;;;;;;;18.73;67.74;98639.81;2106320;28;20055;-49
2022/11/06 00:24:35;;;;;;;4.25;1.80;;;;;;;18.74;67.62;98631.56;2108858;28;20043;-47
2022/11/06 00:25:39;;;;;;;;;;;;;;;18.68;68.04;98636.91;2107323;28;20747;-49
2022/11/06 00:26:42;;;;;;;9.90;1.77;;;;;;;18.69;67.95;98634.00;2108630;28;19930;-47
2022/11/06 00:27:43;;;;;;;13.30;1.90;;;;;;;18.72;67.66;98638.13;2108237;28;20048;-48
2022/11/06 00:28:44;;;;;;;;;;;;;;;18.66;67.98;98638.94;2108240;28;20062;-46
2022/11/06 00:29:46;;;;;;;;;;;;;;;18.59;68.36;98633.56;2107124;28;19919;-47
2022/11/06 00:30:48;;;;;;;5.47;1.35;;;;;;;18.64;67.96;98636.47;2097795;28;20584;-46
2022/11/06 00:31:49;;;;;;;6.32;1.52;;;;;;;18.68;67.82;98635.03;2098811;28;20066;-46
2022/11/06 00:32:51;;;;;;;;;;;;;;;18.63;68.25;98634.00;2100405;28;20052;-47
2022/11/06 00:33:53;;;;;;;;;;;;;;;18.58;68.34;98639.97;2098316;28;19923;-46
2022/11/06 00:34:54;;;;;;;4.25;1.65;;;;;;;18.64;68.32;98639.16;2098189;28;19931;-47
2022/11/06 00:35:55;;;;;;;3.70;1.27;;;;;;;18.69;67.95;98635.84;2097478;28;20056;-48
2022/11/06 00:36:57;;;;;;;;;;;;;;;18.63;68.04;98639.34;2099575;28;20345;-47
2022/11/06 00:37:57;;;;;;;5.88;1.20;;;;;;;18.67;67.92;98641.44;2099265;28;20672;-47
2022/11/06 00:39:00;;;;;;;;;;;;;;;18.61;67.91;98638.72;2099637;28;20063;-47
2022/11/06 00:40:01;;;;;;;5.60;1.80;;;;;;;18.67;67.95;98635.25;2099211;28;19919;-46
2022/11/06 00:41:03;;;;;;;;;;;;;;;18.61;68.27;98636.91;2099334;28;20039;-47
2022/11/06 00:42:04;;;;;;;8.75;1.70;;;;;;;18.65;68.27;98638.13;2100622;28;20294;-47
2022/11/06 00:43:05;;;;;;;;;;;;;;;18.60;68.10;98640.59;2100320;28;20051;-46
2022/11/06 00:44:08;;;;;;;;;;;;;;;18.54;68.50;98647.59;2097246;28;19931;-47
2022/11/06 00:45:11;;;;;;;4.25;1.10;;;;;;;18.62;68.11;98641.22;2107006;28;19950;-47
2022/11/06 00:46:13;;;;;;;3.50;1.05;;;;;;;18.65;68.00;98637.31;2099468;28;20056;-46
2022/11/06 00:47:15;;;;;;;6.38;2.03;;;;;;;18.69;67.70;98644.75;2098459;28;20039;-46
2022/11/06 00:48:15;;;;;;;3.15;1.10;;;;;;;18.70;67.67;98635.66;2099542;28;20044;-47
2022/11/06 00:49:17;;;;;;;;;;;;;;;18.62;67.97;98632.34;2099008;28;20036;-46
2022/11/06 00:50:18;;;;;;;8.93;1.48;;;;;;;18.64;67.86;98638.34;2099828;28;20369;-49
2022/11/06 00:51:20;;;;;;;;;;;;;;;18.57;68.20;98638.31;2096662;28;20043;-48
2022/11/06 00:52:21;;;;;;;3.55;1.25;;;;;;;18.62;67.92;98633.16;2097317;28;20923;-47
2022/11/06 00:53:23;;;;;;;;;;;;;;;18.58;68.19;98641.81;2097245;28;20051;-47
2022/11/06 00:54:23;;;;;;;3.97;0.77;;;;;;;18.62;68.14;98638.53;2100897;28;19930;-48
2022/11/06 00:55:25;;;;;;;;;;;;;;;18.57;68.06;98645.56;2099771;28;20070;-49
2022/11/06 00:56:26;;;;;;;;;;;;;;;18.52;68.25;98638.91;2099165;28;20237;-46
2022/11/06 00:57:28;;;;;;;3.40;0.95;;;;;;;18.59;68.35;98635.44;2098814;28;19935;-46
2022/11/06 00:58:28;;;;;;;6.95;1.40;;;;;;;18.64;67.96;98638.34;2099721;28;20039;-47
2022/11/06 00:59:30;;;;;;;;;;;;;;;18.57;68.34;98635.63;2099044;28;20054;-46
2022/11/06 01:00:33;;;;;;;8.85;1.25;;;;;;;18.61;67.82;98636.91;2104161;28;19920;-47
2022/11/06 01:01:37;;;;;;;1.48;0.98;;;;;;;18.64;68.04;98641.03;2099407;28;20039;-49
2022/11/06 01:02:39;;;;;;;5.50;1.58;;;;;;;18.67;68.02;98627.19;2100674;28;20048;-46
2022/11/06 01:03:42;;;;;;;4.90;1.17;;;;;;;18.69;67.70;98633.16;2098485;28;20044;-48
2022/11/06 01:04:43;;;;;;;1.75;0.73;;;;;;;18.69;67.83;98625.09;2099296;28;20051;-50
2022/11/06 01:05:44;;;;;;;2.33;1.00;;;;;;;18.70;67.76;98621.41;2101249;28;21101;-49
2022/11/06 01:06:47;;;;;;;;;;;;;;;18.62;67.91;98621.59;2100027;28;20044;-47
2022/11/06 01:07:47;;;;;;;3.30;1.42;;;;;;;18.65;68.10;98623.88;2099839;28;19924;-50
2022/11/06 01:08:49;;;;;;;;;;;;;;;18.56;68.28;98625.94;2103960;28;20066;-47
2022/11/06 01:09:50;;;;;;;2.00;1.23;;;;;;;18.61;67.89;98622.59;2099386;28;20593;-47
2022/11/06 01:10:52;;;;;;;;;;;;;;;18.54;68.32;98620.75;2100858;28;20048;-50
2022/11/06 01:11:54;;;;;;;5.03;1.15;;;;;;;18.59;68.09;98625.50;2099736;28;19928;-46
2022/11/06 01:12:56;;;;;;;3.17;1.58;;;;;;;18.63;67.90;98625.94;2100374;28;20054;-47
2022/11/06 01:13:59;;;;;;;3.38;0.82;;;;;;;18.66;68.06;98629.03;2099287;28;21220;-48
2022/11/06 01:15:01;;;;;;;2.92;1.10;;;;;;;18.69;67.64;98627.78;2099992;28;20055;-48
2022/11/06 01:16:07;;;;;;;4.53;1.75;;;;;;;18.68;67.52;98626.16;2104923;28;20047;-46
2022/11/06 01:17:09;;;;;;;2.25;1.38;;;;;;;18.69;67.86;98617.03;2107552;28;20039;-46
2022/11/06 01:18:10;;;;;;;1.70;0.95;;;;;;;18.68;67.70;98626.97;2108860;28;20043;-47
2022/11/06 01:19:12;;;;;;;;;;;;;;;18.59;68.14;98633.56;2107213;28;20050;-48
2022/11/06 01:20:14;;;;;;;4.70;1.35;;;;;;;18.62;68.14;98625.09;2108556;28;19923;-47
2022/11/06 01:21:17;;;;;;;3.85;0.80;;;;;;;18.65;67.71;98630.06;2107721;28;20039;-47
2022/11/06 01:22:19;;;;;;;1.15;0.80;;;;;;;18.66;67.72;98633.56;2107793;28;20051;-46
2022/11/06 01:23:19;;;;;;;1.85;0.68;;;;;;;18.67;67.69;98633.38;2108283;28;20047;-48
2022/11/06 01:24:26;;;;;;;;;;;;;;;18.59;68.25;98638.13;2109853;28;20052;-47
2022/11/06 01:25:27;;;;;;;6.63;1.00;;;;;;;18.61;67.87;98639.59;2107775;28;20387;-47
2022/11/06 01:26:29;;;;;;;;;;;;;;;18.55;68.08;98637.69;2111240;28;20048;-49
2022/11/06 01:27:29;;;;;;;1.52;0.95;;;;;;;18.60;67.97;98642.47;2108956;28;19931;-47
2022/11/06 01:28:31;;;;;;;;;;;;;;;18.55;68.45;98645.75;2111138;27;20078;-47
2022/11/06 01:29:32;;;;;;;2.80;0.85;;;;;;;18.60;68.23;98645.13;2109470;27;19920;-50
2022/11/06 01:30:36;;;;;;;3.42;0.75;;;;;;;18.62;67.95;98649.28;2110535;27;20047;-50
2022/11/06 01:31:38;;;;;;;3.45;1.98;;;;;;;18.64;68.08;98651.78;2107430;28;20040;-47
2022/11/06 01:32:40;;;;;;;2.65;0.90;;;;;;;18.67;68.00;98656.75;2102179;28;20522;-47
2022/11/06 01:33:42;;;;;;;2.15;0.98;;;;;;;18.67;67.92;98651.38;2101585;28;20044;-46
2022/11/06 01:34:43;;;;;;;2.20;0.88;;;;;;;18.67;67.92;98651.38;2101081;28;20054;-57
2022/11/06 01:35:44;;;;;;;4.57;1.10;;;;;;;18.67;68.11;98652.19;2103636;28;20054;-49
2022/11/06 01:36:46;;;;;;;;;;;;;;;18.59;68.02;98659.63;2108883;27;20055;-47
2022/11/06 01:37:47;;;;;;;7.38;1.65;;;;;;;18.61;68.14;98663.75;2107408;28;20014;-51
2022/11/06 01:38:50;;;;;;;;;;;;;;;18.55;68.37;98661.84;2103234;28;20056;-50
2022/11/06 01:39:52;;;;;;;7.60;0.93;;;;;;;18.61;68.11;98662.91;2103909;28;20531;-49
2022/11/06 01:40:53;;;;;;;6.43;1.33;;;;;;;18.64;68.01;98665.22;2104505;28;20056;-48
2022/11/06 01:41:55;;;;;;;4.07;0.80;;;;;;;18.66;67.96;98666.63;2101193;28;20048;-49
2022/11/06 01:42:58;;;;;;;2.28;0.95;;;;;;;18.66;67.94;98665.81;2104046;28;20075;-49
2022/11/06 01:44:02;;;;;;;4.97;1.30;;;;;;;18.66;68.03;98666.63;2103108;28;20535;-47
2022/11/06 01:45:30;;;;;;;2.42;0.90;;;;;;;18.64;67.88;98673.28;2108402;28;20047;-48
2022/11/06 01:46:33;;;;;;;2.10;0.80;;;;;;;18.65;67.98;98680.28;2104252;28;20048;-48
2022/11/06 01:47:37;;;;;;;3.38;1.65;;;;;;;18.66;67.85;98672.00;2104380;28;20051;-47
2022/11/06 01:48:42;;;;;;;3.53;0.65;;;;;;;18.67;67.81;98675.56;2104611;28;20058;-48
2022/11/06 01:49:45;;;;;;;3.92;1.23;;;;;;;18.67;67.64;98678.22;2101156;28;20690;-51
2022/11/06 01:50:50;;;;;;;4.63;1.00;;;;;;;18.68;67.93;98679.88;2101988;28;20055;-50
2022/11/06 01:51:54;;;;;;;1.98;0.80;;;;;;;18.68;68.04;98679.88;2100082;28;20473;-48
2022/11/06 01:52:59;;;;;;;2.70;0.93;;;;;;;18.68;68.04;98678.00;2101476;28;20051;-49
2022/11/06 01:54:03;;;;;;;4.03;1.08;;;;;;;18.68;67.80;98679.88;2100451;27;20063;-47
2022/11/06 01:55:10;;;;;;;2.78;1.15;;;;;;;18.68;68.01;98671.81;2100286;28;20044;-47
2022/11/06 01:56:12;;;;;;;5.25;1.15;;;;;;;18.66;68.16;98677.38;2101085;28;20048;-49
2022/11/06 01:57:14;;;;;;;4.97;1.20;;;;;;;18.65;68.12;98675.72;2103125;28;20062;-48
2022/11/06 01:58:18;;;;;;;4.53;0.85;;;;;;;18.69;68.24;98676.16;2099303;28;20055;-50
2022/11/06 01:59:24;;;;;;;6.40;1.50;;;;;;;18.68;67.81;98680.69;2099847;28;20157;-48
2022/11/06 02:00:26;;;;;;;2.20;1.00;;;;;;;18.66;68.04;98673.88;2104338;28;20051;-50
2022/11/06 02:01:28;;;;;;;2.33;1.20;;;;;;;18.67;67.97;98678.22;2103058;28;20517;-50
2022/11/06 02:02:29;;;;;;;2.85;0.77;;;;;;;18.68;67.93;98679.88;2105372;28;20643;-48
2022/11/06 02:03:32;;;;;;;;;;;;;;;18.58;68.39;98674.06;2101765;28;20047;-46
2022/11/06 02:04:36;;;;;;;3.00;0.98;;;;;;;18.61;68.35;98679.88;2102262;28;20324;-48
2022/11/06 02:05:39;;;;;;;5.65;1.00;;;;;;;18.63;67.89;98676.97;2101271;28;20425;-49
2022/11/06 02:06:39;;;;;;;2.47;1.35;;;;;;;18.64;68.15;98678.66;2100442;28;20104;-49
2022/11/06 02:07:42;;;;;;;;;;;;;;;18.54;68.51;98681.69;2099289;28;20040;-49
2022/11/06 02:08:43;;;;;;;2.67;0.77;;;;;;;18.58;68.53;98677.56;2099969;28;19927;-48
2022/11/06 02:09:45;;;;;;;;;;;;;;;18.52;68.55;98676.50;2102095;28;20775;-48
2022/11/06 02:10:46;;;;;;;1.80;1.25;;;;;;;18.57;68.50;98689.34;2102836;28;19928;-47
2022/11/06 02:12:06;;;;;;;2.55;1.83;;;;;;;18.59;68.37;98681.09;2100103;27;20044;-47
2022/11/06 02:13:21;;;;;;;2.33;1.08;;;;;;;18.59;68.12;98681.09;2101784;28;20043;-50
2022/11/06 02:14:41;;;;;;;4.35;1.52;;;;;;;18.61;68.26;98673.66;2101245;28;20044;-47
2022/11/06 02:15:48;;;;;;;2.55;0.80;;;;;;;18.60;68.17;98672.00;2102053;28;20413;-48
2022/11/06 02:16:53;;;;;;;2.28;0.80;;;;;;;18.61;68.19;98673.66;2101356;28;20056;-49
2022/11/06 02:18:15;;;;;;;1.67;0.70;;;;;;;18.59;68.26;98673.03;2104938;28;20075;-49
2022/11/06 02:19:39;;;;;;;2.90;0.93;;;;;;;18.58;68.24;98671.38;2105629;28;20829;-47
2022/11/06 02:20:47;;;;;;;1.80;0.80;;;;;;;18.59;68.37;98670.34;2110040;28;21070;-48
2022/11/06 02:22:13;;;;;;;1.55;0.73;;;;;;;18.59;68.12;98679.25;2108232;27;20448;-50
2022/11/06 02:23:55;;;;;;;1.70;0.82;;;;;;;18.56;68.28;98670.78;2095618;28;20044;-48
2022/11/06 02:25:11;;;;;;;5.28;1.02;;;;;;;18.54;68.35;98671.78;2095563;28;20056;-47
2022/11/06 02:26:34;;;;;;;2.80;1.33;;;;;;;18.56;68.24;98668.09;2100935;28;20048;-47
2022/11/06 02:27:36;;;;;;;2.92;0.90;;;;;;;18.58;68.42;98671.38;2108832;28;20055;-48
2022/11/06 02:28:44;;;;;;;1.88;1.00;;;;;;;18.60;68.00;98661.25;2109537;28;20140;-47
2022/11/06 02:29:52;;;;;;;3.45;1.10;;;;;;;18.60;68.34;98662.09;2109821;28;20054;-47
2022/11/06 02:30:58;;;;;;;1.50;1.00;;;;;;;18.62;68.30;98664.56;2111673;27;20109;-50
2022/11/06 02:32:03;;;;;;;2.10;0.95;;;;;;;18.62;68.28;98659.22;2111273;28;20051;-48
2022/11/06 02:33:09;;;;;;;1.63;0.68;;;;;;;18.62;68.21;98656.53;2110643;28;20496;-48
2022/11/06 02:34:13;;;;;;;3.78;0.93;;;;;;;18.61;68.27;98658.38;2112494;27;20556;-47
2022/11/06 02:35:23;;;;;;;1.45;0.80;;;;;;;18.60;68.01;98659.41;2106573;28;20047;-48
2022/11/06 02:36:29;;;;;;;4.13;1.23;;;;;;;18.60;68.11;98655.88;2102114;28;20051;-47
2022/11/06 02:37:37;;;;;;;4.13;1.33;;;;;;;18.61;68.05;98661.06;2101424;28;20044;-50
2022/11/06 02:38:42;;;;;;;2.13;1.23;;;;;;;18.60;68.34;98663.94;2102404;28;20047;-49
2022/11/06 02:39:47;;;;;;;1.80;0.55;;;;;;;18.61;68.10;98662.91;2100755;27;20126;-51
2022/11/06 02:40:51;;;;;;;2.75;0.90;;;;;;;18.60;68.06;98661.25;2101770;28;20054;-52
2022/11/06 02:41:57;;;;;;;5.07;1.35;;;;;;;18.59;68.02;98657.75;2103263;28;20134;-49
2022/11/06 02:43:04;;;;;;;4.40;1.10;;;;;;;18.61;68.21;98657.53;2104002;28;20058;-50
2022/11/06 02:44:08;;;;;;;1.33;0.57;;;;;;;18.59;68.06;98654.25;2108141;28;20047;-47
2022/11/06 02:45:13;;;;;;;2.47;0.85;;;;;;;18.59;68.12;98656.94;2103619;28;20048;-51
2022/11/06 02:46:17;;;;;;;2.60;0.77;;;;;;;18.60;68.06;98659.41;2101103;28;20050;-47
2022/11/06 02:47:21;;;;;;;3.35;1.38;;;;;;;18.60;68.04;98662.09;2103589;28;20598;-48
2022/11/06 02:48:28;;;;;;;1.95;0.73;;;;;;;18.60;68.15;98666.63;2099860;28;20138;-49
2022/11/06 02:49:35;;;;;;;3.25;0.98;;;;;;;18.60;68.33;98667.44;2104154;28;20075;-47
2022/11/06 02:50:43;;;;;;;1.75;1.15;;;;;;;18.59;68.11;98662.31;2100499;28;20048;-47
2022/11/06 02:51:53;;;;;;;3.83;1.45;;;;;;;18.59;67.93;98673.03;2107044;28;20047;-49
2022/11/06 02:52:58;;;;;;;2.28;0.68;;;;;;;18.57;68.17;98667.88;2103102;28;20370;-47
2022/11/06 02:54:02;;;;;;;5.88;1.30;;;;;;;18.56;68.03;98666.22;2104018;28;20043;-50
2022/11/06 02:55:10;;;;;;;2.60;1.00;;;;;;;18.59;68.13;98667.66;2102712;28;20051;-47
2022/11/06 02:56:15;;;;;;;4.18;0.80;;;;;;;18.58;68.19;98664.13;2102108;28;20413;-50
2022/11/06 02:57:18;;;;;;;5.43;1.00;;;;;;;18.57;68.01;98673.22;2104483;28;20438;-48
2022/11/06 02:58:28;;;;;;;2.13;1.10;;;;;;;18.57;68.34;98665.19;2101511;28;20036;-48
2022/11/06 02:59:39;;;;;;;2.38;1.50;;;;;;;18.57;68.39;98672.41;2100647;27;20048;-48
2022/11/06 03:00:45;;;;;;;2.15;0.88;;;;;;;18.54;67.91;98671.78;2100238;27;20777;-48
2022/11/06 03:01:51;;;;;;;2.90;1.10;;;;;;;18.57;68.43;98675.91;2101271;28;20043;-47
2022/11/06 03:02:57;;;;;;;1.60;0.90;;;;;;;18.57;68.27;98672.41;2104827;28;20405;-47
2022/11/06 03:04:06;;;;;;;3.35;1.08;;;;;;;18.56;68.05;98671.59;2100434;28;20044;-47
2022/11/06 03:05:12;;;;;;;7.50;0.90;;;;;;;18.56;68.24;98670.78;2098592;28;20043;-47
2022/11/06 03:06:19;;;;;;;4.38;1.30;;;;;;;18.57;68.30;98683.16;2097084;28;20124;-48
2022/11/06 03:07:27;;;;;;;2.88;0.55;;;;;;;18.56;68.39;98676.13;2099935;28;20399;-49
2022/11/06 03:08:35;;;;;;;2.50;0.88;;;;;;;18.54;68.14;98674.47;2099995;28;20202;-46
2022/11/06 03:09:36;;;;;;;11.50;2.47;;;;;;;18.53;68.29;98672.81;2097947;28;20500;-48
2022/11/06 03:10:40;;;;;;;;;;;;;;;18.44;68.54;98676.72;2100199;28;20056;-49
2022/11/06 03:11:41;;;;;;;3.53;1.27;;;;;;;18.48;68.31;98674.44;2101476;28;19920;-47
2022/11/06 03:12:47;;;;;;;;;;;;;;;18.40;68.56;98677.31;2099577;28;20524;-48
2022/11/06 03:13:54;;;;;;;4.55;0.88;;;;;;;18.45;68.62;98681.06;2099537;28;19928;-48
2022/11/06 03:15:02;;;;;;;8.05;0.80;;;;;;;18.49;68.40;98678.78;2099871;27;20692;-49
2022/11/06 03:16:12;;;;;;;0.68;0.65;;;;;;;18.52;68.23;98681.88;2099311;28;20520;-50
2022/11/06 03:17:18;;;;;;;3.33;0.50;;;;;;;18.51;68.17;98685.63;2106386;28;20052;-48
2022/11/06 03:18:27;;;;;;;2.85;0.82;;;;;;;18.52;68.37;98681.06;2108179;28;20122;-50
2022/11/06 03:19:33;;;;;;;8.90;1.10;;;;;;;18.52;68.44;98675.69;2100010;28;20044;-47
2022/11/06 03:20:39;;;;;;;2.50;1.00;;;;;;;18.53;68.02;98674.69;2103355;28;20073;-46
2022/11/06 03:21:52;;;;;;;5.93;0.93;;;;;;;18.52;68.25;98676.50;2099482;28;20046;-48
2022/11/06 03:22:57;;;;;;;3.38;1.48;;;;;;;18.51;68.26;98674.03;2091641;28;20055;-50
2022/11/06 03:24:07;;;;;;;2.58;1.45;;;;;;;18.50;68.37;98675.91;2091251;28;20048;-49
2022/11/06 03:25:17;;;;;;;1.25;0.73;;;;;;;18.51;68.19;98674.88;2089633;28;20041;-47
2022/11/06 03:26:24;;;;;;;4.25;0.60;;;;;;;18.51;68.09;98674.88;2092171;28;20705;-46
2022/11/06 03:27:34;;;;;;;3.92;1.08;;;;;;;18.51;68.25;98682.09;2092259;28;21106;-51
2022/11/06 03:28:40;;;;;;;1.85;0.65;;;;;;;18.50;68.18;98677.78;2090370;28;20067;-49
2022/11/06 03:29:45;;;;;;;3.72;0.85;;;;;;;18.50;68.48;98675.91;2092383;28;20048;-48
2022/11/06 03:30:53;;;;;;;4.63;1.10;;;;;;;18.50;68.34;98677.78;2090544;28;20044;-49
2022/11/06 03:31:59;;;;;;;3.58;1.08;;;;;;;18.49;68.29;98681.47;2091826;28;20040;-47
2022/11/06 03:33:09;;;;;;;3.40;0.70;;;;;;;18.50;68.42;98681.28;2092167;28;20397;-48
2022/11/06 03:34:17;;;;;;;2.00;1.40;;;;;;;18.50;68.23;98689.34;2093882;28;20060;-48
2022/11/06 03:35:24;;;;;;;1.10;0.57;;;;;;;18.49;68.28;98684.16;2091797;28;22062;-51
2022/11/06 03:36:31;;;;;;;0.98;0.68;;;;;;;18.48;68.43;98687.88;2090475;28;20064;-49
2022/11/06 03:37:39;;;;;;;2.58;1.25;;;;;;;18.49;68.39;98692.22;2091369;28;20050;-48
2022/11/06 03:38:44;;;;;;;1.98;0.63;;;;;;;18.48;68.31;98688.72;2087280;28;20040;-47
2022/11/06 03:39:50;;;;;;;1.83;0.77;;;;;;;18.50;68.45;98683.97;2095240;28;20131;-49
2022/11/06 03:40:56;;;;;;;1.35;0.77;;;;;;;18.49;68.31;98692.22;2094226;28;20052;-47
2022/11/06 03:42:02;;;;;;;1.70;0.98;;;;;;;18.48;68.16;98688.72;2097094;28;20055;-47
2022/11/06 03:43:08;;;;;;;6.53;0.80;;;;;;;18.49;68.43;98687.66;2086970;28;20062;-46
2022/11/06 03:44:13;;;;;;;4.68;0.70;;;;;;;18.48;68.17;98682.50;2096939;28;20437;-47
2022/11/06 03:45:22;;;;;;;2.97;0.65;;;;;;;18.49;68.15;98686.84;2098115;28;20046;-47
2022/11/06 03:46:25;;;;;;;3.15;0.77;;;;;;;18.49;68.18;98687.66;2095731;28;20044;-47
2022/11/06 03:47:32;;;;;;;4.28;0.95;;;;;;;18.49;68.36;98687.66;2095562;28;20121;-47
2022/11/06 03:48:38;;;;;;;1.00;0.40;;;;;;;18.48;68.21;98686.03;2095270;28;20055;-47
2022/11/06 03:49:47;;;;;;;1.20;0.63;;;;;;;18.49;68.20;98689.53;2095573;28;20399;-47
2022/11/06 03:50:55;;;;;;;2.72;0.68;;;;;;;18.49;68.19;98689.53;2097675;28;20051;-48
2022/11/06 03:52:00;;;;;;;1.35;0.50;;;;;;;18.48;68.36;98688.72;2097813;28;20037;-47
2022/11/06 03:53:07;;;;;;;4.05;1.00;;;;;;;18.48;68.07;98686.03;2094710;28;20402;-48
2022/11/06 03:54:16;;;;;;;4.80;1.27;;;;;;;18.48;68.24;98685.19;2091610;28;21305;-46
2022/11/06 03:55:22;;;;;;;3.80;2.05;;;;;;;18.47;68.32;98687.06;2100875;28;20048;-49
2022/11/06 03:56:30;;;;;;;2.33;0.68;;;;;;;18.47;68.37;98692.44;2093924;28;20040;-47
2022/11/06 03:57:39;;;;;;;1.73;0.40;;;;;;;18.47;68.41;98691.59;2091283;28;20055;-47
2022/11/06 03:58:44;;;;;;;1.83;0.88;;;;;;;18.46;68.26;98695.31;2092498;28;20049;-46
2022/11/06 03:59:50;;;;;;;5.45;1.08;;;;;;;18.47;68.32;98694.25;2095616;28;20055;-46
2022/11/06 04:00:54;;;;;;;4.35;0.63;;;;;;;18.47;68.35;98702.31;2091977;28;20094;-46
2022/11/06 04:01:58;;;;;;;1.50;0.50;;;;;;;18.48;68.22;98698.63;2094820;28;20083;-47
2022/11/06 04:03:04;;;;;;;3.10;0.68;;;;;;;18.49;68.47;98700.28;2097521;28;20059;-48
2022/11/06 04:04:11;;;;;;;2.88;0.75;;;;;;;18.48;68.57;98699.44;2095720;28;20629;-49
2022/11/06 04:05:19;;;;;;;7.45;1.23;;;;;;;18.48;68.39;98702.13;2095422;28;20059;-47
2022/11/06 04:06:24;;;;;;;2.90;1.08;;;;;;;18.46;68.38;98701.50;2090602;28;20060;-50
2022/11/06 04:07:33;;;;;;;1.02;0.63;;;;;;;18.47;68.66;98697.81;2094047;28;20048;-46
2022/11/06 04:14:01;;;;;;;3.10;0.93;;;;;;;18.43;68.65;98703.78;2062827;28;20053;-49
2022/11/06 04:15:03;;;;;;;1.55;0.60;;;;;;;18.43;68.45;98707.28;2084196;28;20448;-47
2022/11/06 04:16:08;;;;;;;1.15;0.60;;;;;;;18.44;68.71;98702.72;2102752;28;20055;-47
2022/11/06 04:17:12;;;;;;;2.22;0.80;;;;;;;18.44;68.56;98705.41;2106280;28;20054;-46
2022/11/06 04:18:18;;;;;;;1.25;0.70;;;;;;;18.45;68.63;98712.47;2106650;28;20062;-46
2022/11/06 04:19:21;;;;;;;0.95;0.88;;;;;;;18.44;68.68;98708.09;2105692;28;20058;-47
2022/11/06 04:21:56;;;;;;;2.42;0.60;;;;;;;18.42;68.53;98711.00;2097818;28;20039;-46
2022/11/06 04:23:11;;;;;;;1.90;0.45;;;;;;;18.43;68.69;98709.13;2105933;28;20104;-47
2022/11/06 04:27:38;;;;;;;1.67;0.60;;;;;;;18.37;68.88;98705.41;2105029;28;20130;-47
2022/11/06 04:28:47;;;;;;;1.42;0.63;;;;;;;18.40;68.69;98709.53;2106246;28;20054;-47
2022/11/06 04:30:02;;;;;;;0.85;0.55;;;;;;;18.39;68.89;98705.22;2107114;28;20139;-47
2022/11/06 04:31:10;;;;;;;2.95;0.60;;;;;;;18.38;68.89;98707.03;2105124;28;20052;-46
2022/11/06 04:32:18;;;;;;;1.85;0.50;;;;;;;18.40;68.73;98712.22;2106444;28;20039;-49
2022/11/06 04:33:26;;;;;;;2.55;0.80;;;;;;;18.41;68.86;98712.00;2108081;28;20048;-49
2022/11/06 04:34:39;;;;;;;1.65;1.20;;;;;;;18.40;68.63;98715.72;2105528;28;20052;-47
2022/11/06 04:35:54;;;;;;;2.35;0.60;;;;;;;18.39;68.88;98719.47;2106316;28;20047;-49
2022/11/06 04:37:05;;;;;;;3.15;0.73;;;;;;;18.39;68.83;98722.16;2106117;28;20362;-47
2022/11/06 04:38:13;;;;;;;2.85;0.70;;;;;;;18.39;68.86;98719.47;2108461;28;20079;-48
2022/11/06 04:39:22;;;;;;;1.10;0.98;;;;;;;18.40;68.64;98722.97;2105981;28;20126;-47
2022/11/06 04:40:27;;;;;;;2.08;1.10;;;;;;;18.41;68.85;98725.44;2105153;28;20055;-49
2022/11/06 04:41:35;;;;;;;2.55;0.63;;;;;;;18.41;68.66;98728.13;2106653;28;20065;-47
2022/11/06 04:42:42;;;;;;;5.72;0.77;;;;;;;18.40;68.73;98722.97;2106419;28;20516;-51
2022/11/06 04:43:48;;;;;;;2.10;0.90;;;;;;;18.42;69.03;98726.28;2106216;28;20075;-53
2022/11/06 04:44:54;;;;;;;1.67;0.75;;;;;;;18.42;68.87;98727.13;2105778;28;20056;-49
2022/11/06 04:45:58;;;;;;;2.92;0.80;;;;;;;18.40;68.79;98717.59;2107644;28;20051;-50
2022/11/06 04:47:04;;;;;;;8.30;1.25;;;;;;;18.40;68.78;98725.66;2098969;28;20066;-48
2022/11/06 04:48:07;;;;;;;1.85;0.82;;;;;;;18.40;68.92;98723.78;2095966;28;20210;-51
2022/11/06 04:49:10;;;;;;;5.47;1.33;;;;;;;18.41;68.92;98721.94;2103814;28;20043;-48
2022/11/06 04:50:14;;;;;;;2.55;0.68;;;;;;;18.41;68.86;98727.31;2101046;28;22982;-50
2022/11/06 04:51:21;;;;;;;3.28;0.45;;;;;;;18.40;68.86;98721.09;2100896;28;20062;-47
2022/11/06 04:52:25;;;;;;;0.88;0.70;;;;;;;18.41;68.59;98722.75;2101908;28;20040;-48
2022/11/06 04:53:29;;;;;;;4.47;1.10;;;;;;;18.41;68.71;98714.69;2105552;28;20569;-50
2022/11/06 04:54:33;;;;;;;1.80;0.70;;;;;;;18.42;68.85;98718.22;2099574;28;20054;-49
2022/11/06 04:55:44;;;;;;;1.98;0.98;;;;;;;18.42;68.86;98718.22;2103284;28;20704;-50
2022/11/06 04:56:46;;;;;;;8.57;2.13;;;;;;;18.40;68.81;98720.28;2102964;28;20052;-48
2022/11/06 04:57:46;;;;;;;6.20;0.57;;;;;;;18.40;68.82;98721.09;2102834;28;20043;-47
2022/11/06 04:58:48;;;;;;;;;;;;;;;18.32;69.11;98718.59;2103461;28;20078;-48
2022/11/06 04:59:49;;;;;;;2.40;1.05;;;;;;;18.34;68.98;98721.09;2104996;28;20947;-47
2022/11/06 05:00:51;;;;;;;;;;;;;;;18.27;69.21;98729.09;2104455;28;20087;-47
2022/11/06 05:01:52;;;;;;;4.57;0.90;;;;;;;18.31;69.22;98723.13;2109114;28;20805;-49
2022/11/06 05:02:55;;;;;;;;;;;;;;;18.23;69.23;98717.94;2102407;28;20497;-49
2022/11/06 05:03:56;;;;;;;1.70;0.88;;;;;;;18.30;69.31;98726.84;2099331;28;19923;-50
2022/11/06 05:04:57;;;;;;;;;;;;;;;18.25;69.47;98723.13;2098405;28;20218;-50
2022/11/06 05:05:58;;;;;;;;;;;;;;;18.20;69.53;98723.69;2104991;28;19923;-47
2022/11/06 05:06:59;;;;;;;1.13;0.67;;;;;;;18.25;69.49;98718.56;2104561;27;19926;-49
2022/11/06 05:08:00;;;;;;;3.63;0.63;;;;;;;18.30;69.25;98712.59;2102148;28;20822;-49
2022/11/06 05:09:02;;;;;;;;;;;;;;;18.24;69.25;98726.81;2103295;27;20051;-48
2022/11/06 05:10:04;;;;;;;0.73;0.43;;;;;;;18.28;69.08;98710.13;2106395;28;19928;-50
2022/11/06 05:11:05;;;;;;;1.52;0.40;;;;;;;18.32;69.17;98707.84;2104005;28;20110;-48
2022/11/06 05:12:06;;;;;;;2.40;0.77;;;;;;;18.34;69.07;98718.41;2107730;28;20043;-48
2022/11/06 05:13:08;;;;;;;;;;;;;;;18.25;69.18;98723.94;2107373;28;20115;-47
2022/11/06 05:14:09;;;;;;;5.25;0.77;;;;;;;18.29;69.36;98714.44;2107726;28;19924;-47
2022/11/06 05:15:10;;;;;;;;;;;;;;;18.23;69.37;98725.16;2105822;28;20054;-47
2022/11/06 05:16:11;;;;;;;4.43;0.65;;;;;;;18.28;69.36;98720.03;2107822;28;19942;-47
2022/11/06 05:17:13;;;;;;;;;;;;;;;18.21;69.62;98721.84;2099155;28;20085;-47
2022/11/06 05:18:15;;;;;;;6.82;1.15;;;;;;;18.27;69.19;98711.13;2106019;28;19935;-47
2022/11/06 05:19:16;;;;;;;2.20;0.80;;;;;;;18.31;69.33;98711.56;2105624;28;20108;-46
2022/11/06 05:20:17;;;;;;;1.80;0.70;;;;;;;18.34;69.18;98710.34;2100941;28;20054;-47
2022/11/06 05:22:59;;;;;;;3.67;1.08;;;;;;;18.28;69.11;98710.13;2105990;28;21468;-47